createdAt,value
2018-09-14T00:00:06.817Z,59.67
2018-09-14T00:00:38.418Z,59.65
2018-09-14T00:01:10.016Z,59.71
2018-09-14T00:01:41.612Z,59.70
2018-09-14T00:02:13.190Z,59.81
2018-09-14T00:02:44.799Z,59.83
2018-09-14T00:03:16.389Z,59.94
2018-09-14T00:03:47.976Z,60.66
2018-09-14T00:04:19.581Z,60.05
2018-09-14T00:04:51.190Z,59.97
2018-09-14T00:05:22.801Z,59.98
2018-09-14T00:05:54.406Z,59.94
2018-09-14T00:06:26.014Z,60.32
2018-09-14T00:06:57.621Z,60.17
2018-09-14T00:07:29.208Z,60.86
2018-09-14T00:08:00.820Z,60.72
2018-09-14T00:08:32.423Z,60.08
2018-09-14T00:09:04.017Z,60.05
2018-09-14T00:09:35.603Z,60.13
2018-09-14T00:10:07.188Z,60.18
2018-09-14T00:10:38.762Z,60.24
2018-09-14T00:11:10.352Z,60.18
2018-09-14T00:11:41.937Z,60.21
2018-09-14T00:12:13.532Z,60.36
2018-09-14T00:12:45.120Z,60.27
2018-09-14T00:13:16.748Z,60.41
2018-09-14T00:13:48.354Z,60.31
2018-09-14T00:14:19.943Z,60.28
2018-09-14T00:14:51.535Z,60.28
2018-09-14T00:15:23.138Z,60.27
2018-09-14T00:15:54.742Z,60.40
2018-09-14T00:16:26.336Z,60.36
2018-09-14T00:16:57.937Z,60.39
2018-09-14T00:17:29.524Z,60.37
2018-09-14T00:18:01.153Z,60.38
2018-09-14T00:18:32.740Z,60.36
2018-09-14T00:19:04.336Z,60.37
2018-09-14T00:19:35.928Z,60.51
2018-09-14T00:20:07.516Z,60.38
2018-09-14T00:20:39.100Z,60.38
2018-09-14T00:21:10.682Z,60.34
2018-09-14T00:21:42.268Z,60.33
2018-09-14T00:22:13.870Z,60.34
2018-09-14T00:22:45.460Z,60.38
2018-09-14T00:23:17.066Z,60.41
2018-09-14T00:23:48.647Z,60.38
2018-09-14T00:24:20.235Z,60.42
2018-09-14T00:24:52.520Z,60.49
2018-09-14T00:25:24.112Z,60.41
2018-09-14T00:25:55.709Z,60.38
2018-09-14T00:26:27.314Z,60.36
2018-09-14T00:26:58.904Z,60.40
2018-09-14T00:27:30.507Z,60.38
2018-09-14T00:28:02.096Z,60.51
2018-09-14T00:28:33.705Z,60.43
2018-09-14T00:29:05.286Z,60.45
2018-09-14T00:29:36.886Z,60.47
2018-09-14T00:30:08.476Z,60.47
2018-09-14T00:30:40.064Z,60.45
2018-09-14T00:31:11.666Z,60.48
2018-09-14T00:31:43.260Z,60.46
2018-09-14T00:32:14.849Z,60.43
2018-09-14T00:32:46.436Z,60.49
2018-09-14T00:33:18.075Z,60.50
2018-09-14T00:33:49.683Z,60.48
2018-09-14T00:34:21.276Z,60.55
2018-09-14T00:34:52.868Z,60.56
2018-09-14T00:35:24.474Z,60.56
2018-09-14T00:35:56.074Z,60.61
2018-09-14T00:36:27.683Z,60.56
2018-09-14T00:36:59.286Z,60.57
2018-09-14T00:37:30.875Z,60.64
2018-09-14T00:38:02.463Z,60.69
2018-09-14T00:38:34.075Z,60.86
2018-09-14T00:39:05.664Z,61.01
2018-09-14T00:39:37.247Z,60.81
2018-09-14T00:40:08.832Z,60.68
2018-09-14T00:40:40.416Z,60.74
2018-09-14T00:41:12.008Z,61.16
2018-09-14T00:41:43.587Z,60.98
2018-09-14T00:42:15.179Z,61.15
2018-09-14T00:42:46.790Z,60.96
2018-09-14T00:43:18.726Z,60.86
2018-09-14T00:43:50.319Z,60.81
2018-09-14T00:44:21.909Z,61.06
2018-09-14T00:44:53.511Z,61.08
2018-09-14T00:45:25.114Z,61.17
2018-09-14T00:45:56.704Z,60.91
2018-09-14T00:46:28.296Z,60.93
2018-09-14T00:46:59.881Z,61.30
2018-09-14T00:47:31.472Z,61.00
2018-09-14T00:48:03.070Z,61.08
2018-09-14T00:48:34.692Z,61.09
2018-09-14T00:49:06.293Z,61.13
2018-09-14T00:49:37.891Z,61.13
2018-09-14T00:50:09.480Z,61.14
2018-09-14T00:50:41.055Z,61.13
2018-09-14T00:51:12.643Z,61.13
2018-09-14T00:51:44.228Z,61.16
2018-09-14T00:52:15.830Z,61.13
2018-09-14T00:52:47.434Z,61.17
2018-09-14T00:53:19.038Z,61.15
2018-09-14T00:53:50.674Z,61.19
2018-09-14T00:54:22.255Z,61.18
2018-09-14T00:54:53.830Z,61.20
2018-09-14T00:55:25.429Z,61.22
2018-09-14T00:55:57.034Z,61.27
2018-09-14T00:56:28.637Z,61.22
2018-09-14T00:57:00.238Z,61.19
2018-09-14T00:57:31.850Z,61.19
2018-09-14T00:58:03.449Z,61.11
2018-09-14T00:58:35.086Z,61.27
2018-09-14T00:59:06.687Z,61.22
2018-09-14T00:59:38.285Z,61.28
2018-09-14T01:00:09.890Z,61.26
2018-09-14T01:00:41.484Z,61.19
2018-09-14T01:01:13.089Z,61.16
2018-09-14T01:01:44.676Z,61.13
2018-09-14T01:02:16.282Z,61.26
2018-09-14T01:02:47.886Z,61.21
2018-09-14T01:03:19.488Z,61.20
2018-09-14T01:03:51.118Z,61.26
2018-09-14T01:04:22.696Z,61.18
2018-09-14T01:04:54.297Z,61.18
2018-09-14T01:05:25.902Z,61.19
2018-09-14T01:05:57.488Z,61.15
2018-09-14T01:06:29.095Z,61.13
2018-09-14T01:07:00.684Z,61.11
2018-09-14T01:07:32.272Z,61.12
2018-09-14T01:08:03.860Z,61.07
2018-09-14T01:08:35.788Z,61.11
2018-09-14T01:09:07.386Z,61.08
2018-09-14T01:09:38.978Z,61.07
2018-09-14T01:10:10.582Z,61.12
2018-09-14T01:10:42.160Z,61.25
2018-09-14T01:11:13.752Z,61.22
2018-09-14T01:11:45.344Z,61.26
2018-09-14T01:12:16.928Z,61.21
2018-09-14T01:12:48.516Z,61.29
2018-09-14T01:13:20.113Z,61.22
2018-09-14T01:13:51.742Z,61.22
2018-09-14T01:14:23.332Z,61.32
2018-09-14T01:14:54.920Z,61.15
2018-09-14T01:15:26.511Z,61.13
2018-09-14T01:15:58.102Z,61.11
2018-09-14T01:16:29.696Z,61.07
2018-09-14T01:17:01.303Z,61.03
2018-09-14T01:17:33.968Z,61.11
2018-09-14T01:18:05.551Z,61.16
2018-09-14T01:18:37.186Z,61.19
2018-09-14T01:19:08.802Z,62.18
2018-09-14T01:19:40.388Z,61.91
2018-09-14T01:20:12.007Z,62.26
2018-09-14T01:20:43.582Z,61.72
2018-09-14T01:21:15.187Z,61.51
2018-09-14T01:21:46.781Z,61.48
2018-09-14T01:22:18.376Z,61.50
2018-09-14T01:22:49.958Z,61.48
2018-09-14T01:23:21.548Z,61.68
2018-09-14T01:23:53.169Z,61.59
2018-09-14T01:24:24.765Z,61.71
2018-09-14T01:24:56.342Z,62.31
2018-09-14T01:25:27.946Z,62.00
2018-09-14T01:25:59.536Z,61.91
2018-09-14T01:26:31.142Z,62.00
2018-09-14T01:27:02.731Z,61.96
2018-09-14T01:27:34.330Z,62.00
2018-09-14T01:28:05.928Z,62.11
2018-09-14T01:28:37.520Z,62.03
2018-09-14T01:29:09.136Z,62.11
2018-09-14T01:29:40.739Z,62.09
2018-09-14T01:30:12.341Z,62.09
2018-09-14T01:30:43.928Z,62.08
2018-09-14T01:31:15.531Z,62.10
2018-09-14T01:31:47.118Z,62.17
2018-09-14T01:32:18.704Z,62.20
2018-09-14T01:32:50.298Z,62.78
2018-09-14T01:33:21.897Z,63.06
2018-09-14T01:33:53.508Z,62.62
2018-09-14T01:34:25.110Z,62.32
2018-09-14T01:34:56.714Z,62.18
2018-09-14T01:35:28.304Z,62.09
2018-09-14T01:35:59.902Z,62.00
2018-09-14T01:36:31.506Z,62.05
2018-09-14T01:37:03.109Z,62.09
2018-09-14T01:37:34.715Z,63.27
2018-09-14T01:38:06.304Z,63.31
2018-09-14T01:38:37.911Z,62.36
2018-09-14T01:39:09.518Z,62.44
2018-09-14T01:39:41.103Z,62.91
2018-09-14T01:40:12.702Z,62.61
2018-09-14T01:40:44.292Z,62.63
2018-09-14T01:41:15.880Z,62.47
2018-09-14T01:41:47.472Z,62.57
2018-09-14T01:42:19.078Z,62.59
2018-09-14T01:42:50.682Z,62.62
2018-09-14T01:43:22.261Z,62.68
2018-09-14T01:43:53.890Z,62.76
2018-09-14T01:44:25.518Z,62.75
2018-09-14T01:44:57.112Z,62.82
2018-09-14T01:45:28.704Z,62.92
2018-09-14T01:46:00.307Z,62.91
2018-09-14T01:46:31.892Z,62.93
2018-09-14T01:47:03.480Z,63.06
2018-09-14T01:47:35.072Z,63.14
2018-09-14T01:48:06.664Z,63.10
2018-09-14T01:48:38.251Z,63.12
2018-09-14T01:49:09.878Z,63.10
2018-09-14T01:49:41.464Z,63.13
2018-09-14T01:50:13.052Z,63.08
2018-09-14T01:50:44.653Z,63.09
2018-09-14T01:51:16.240Z,63.07
2018-09-14T01:51:47.831Z,63.11
2018-09-14T01:52:19.436Z,64.90
2018-09-14T01:52:51.024Z,64.35
2018-09-14T01:53:22.616Z,63.84
2018-09-14T01:53:54.221Z,63.30
2018-09-14T01:54:25.839Z,63.73
2018-09-14T01:54:57.423Z,63.12
2018-09-14T01:55:29.015Z,63.07
2018-09-14T01:56:00.606Z,63.08
2018-09-14T01:56:32.193Z,63.13
2018-09-14T01:57:03.788Z,63.15
2018-09-14T01:57:35.394Z,65.23
2018-09-14T01:58:07.004Z,64.58
2018-09-14T01:58:38.591Z,64.24
2018-09-14T01:59:10.194Z,64.25
2018-09-14T01:59:41.780Z,63.97
2018-09-14T02:00:13.387Z,63.62
2018-09-14T02:00:44.976Z,63.83
2018-09-14T02:01:16.560Z,63.68
2018-09-14T02:01:48.162Z,63.67
2018-09-14T02:02:19.738Z,63.22
2018-09-14T02:02:51.337Z,63.26
2018-09-14T02:03:22.921Z,63.43
2018-09-14T02:03:54.532Z,63.45
2018-09-14T02:04:26.138Z,63.28
2018-09-14T02:04:57.737Z,63.92
2018-09-14T02:05:29.350Z,63.52
2018-09-14T02:06:00.940Z,63.43
2018-09-14T02:06:32.533Z,63.48
2018-09-14T02:07:04.116Z,63.79
2018-09-14T02:07:35.709Z,63.97
2018-09-14T02:08:07.310Z,63.96
2018-09-14T02:08:38.914Z,63.65
2018-09-14T02:09:10.528Z,63.59
2018-09-14T02:09:42.115Z,63.60
2018-09-14T02:10:13.711Z,63.94
2018-09-14T02:10:45.314Z,63.77
2018-09-14T02:11:16.896Z,63.71
2018-09-14T02:11:48.470Z,63.90
2018-09-14T02:12:20.057Z,63.75
2018-09-14T02:12:51.663Z,63.90
2018-09-14T02:13:23.252Z,64.04
2018-09-14T02:13:54.856Z,63.91
2018-09-14T02:14:26.485Z,63.86
2018-09-14T02:14:58.086Z,63.74
2018-09-14T02:15:29.676Z,63.67
2018-09-14T02:16:01.272Z,63.69
2018-09-14T02:16:32.868Z,63.70
2018-09-14T02:17:04.456Z,63.74
2018-09-14T02:17:36.035Z,63.74
2018-09-14T02:18:07.666Z,63.75
2018-09-14T02:18:39.255Z,63.77
2018-09-14T02:19:10.887Z,63.81
2018-09-14T02:19:42.463Z,63.75
2018-09-14T02:20:14.048Z,63.69
2018-09-14T02:20:45.644Z,63.68
2018-09-14T02:21:17.232Z,63.67
2018-09-14T02:21:49.136Z,63.63
2018-09-14T02:22:21.069Z,63.69
2018-09-14T02:22:52.992Z,63.57
2018-09-14T02:23:24.815Z,63.76
2018-09-14T02:23:56.784Z,63.64
2018-09-14T02:24:28.626Z,63.54
2018-09-14T02:25:00.278Z,63.61
2018-09-14T02:25:31.953Z,63.45
2018-09-14T02:26:03.531Z,63.48
2018-09-14T02:26:35.116Z,63.52
2018-09-14T02:27:06.724Z,63.48
2018-09-14T02:27:38.325Z,63.44
2018-09-14T02:28:09.926Z,63.47
2018-09-14T02:28:41.516Z,63.54
2018-09-14T02:29:13.104Z,63.51
2018-09-14T02:29:44.705Z,63.46
2018-09-14T02:30:16.282Z,63.45
2018-09-14T02:30:47.857Z,63.50
2018-09-14T02:31:19.458Z,63.45
2018-09-14T02:31:51.039Z,63.49
2018-09-14T02:32:22.624Z,63.45
2018-09-14T02:32:54.250Z,63.57
2018-09-14T02:33:25.826Z,63.49
2018-09-14T02:33:57.444Z,63.58
2018-09-14T02:34:29.098Z,63.89
2018-09-14T02:35:00.693Z,63.58
2018-09-14T02:35:32.284Z,63.52
2018-09-14T02:36:03.873Z,63.52
2018-09-14T02:36:35.463Z,63.61
2018-09-14T02:37:07.053Z,63.61
2018-09-14T02:37:38.638Z,63.67
2018-09-14T02:38:10.215Z,63.56
2018-09-14T02:38:41.807Z,63.99
2018-09-14T02:39:13.396Z,63.61
2018-09-14T02:39:44.983Z,63.46
2018-09-14T02:40:16.585Z,63.64
2018-09-14T02:40:48.175Z,63.93
2018-09-14T02:41:19.782Z,64.50
2018-09-14T02:41:51.380Z,64.08
2018-09-14T02:42:22.990Z,64.29
2018-09-14T02:42:54.581Z,64.22
2018-09-14T02:43:26.164Z,63.64
2018-09-14T02:43:57.746Z,63.52
2018-09-14T02:44:29.349Z,63.81
2018-09-14T02:45:00.949Z,63.86
2018-09-14T02:45:32.548Z,64.00
2018-09-14T02:46:04.183Z,64.07
2018-09-14T02:46:35.776Z,64.10
2018-09-14T02:47:07.360Z,64.12
2018-09-14T02:47:38.934Z,64.19
2018-09-14T02:48:10.520Z,64.21
2018-09-14T02:48:42.116Z,64.26
2018-09-14T02:49:13.694Z,64.27
2018-09-14T02:49:45.325Z,64.36
2018-09-14T02:50:16.912Z,64.38
2018-09-14T02:50:49.543Z,64.37
2018-09-14T02:51:21.140Z,64.56
2018-09-14T02:51:52.754Z,64.25
2018-09-14T02:52:24.359Z,63.92
2018-09-14T02:52:55.948Z,63.74
2018-09-14T02:53:27.540Z,63.59
2018-09-14T02:53:59.142Z,63.25
2018-09-14T02:54:30.746Z,63.87
2018-09-14T02:55:02.386Z,63.76
2018-09-14T02:55:33.991Z,63.79
2018-09-14T02:56:05.598Z,63.82
2018-09-14T02:56:37.204Z,63.80
2018-09-14T02:57:08.812Z,63.89
2018-09-14T02:57:40.418Z,64.04
2018-09-14T02:58:12.023Z,64.13
2018-09-14T02:58:43.608Z,63.81
2018-09-14T02:59:15.204Z,63.81
2018-09-14T02:59:46.813Z,63.62
2018-09-14T03:00:18.466Z,63.77
2018-09-14T03:00:50.051Z,63.78
2018-09-14T03:01:21.626Z,63.75
2018-09-14T03:01:53.226Z,63.82
2018-09-14T03:02:24.816Z,63.93
2018-09-14T03:02:56.404Z,63.83
2018-09-14T03:03:28.007Z,63.90
2018-09-14T03:03:59.606Z,63.91
2018-09-14T03:04:31.211Z,63.89
2018-09-14T03:05:02.822Z,63.39
2018-09-14T03:05:34.453Z,63.28
2018-09-14T03:06:06.040Z,63.53
2018-09-14T03:06:37.614Z,63.52
2018-09-14T03:07:09.218Z,63.63
2018-09-14T03:07:40.811Z,63.70
2018-09-14T03:08:12.406Z,63.69
2018-09-14T03:08:43.996Z,63.72
2018-09-14T03:09:15.583Z,63.66
2018-09-14T03:09:47.186Z,63.66
2018-09-14T03:10:18.790Z,63.71
2018-09-14T03:10:50.414Z,63.66
2018-09-14T03:11:22.014Z,63.61
2018-09-14T03:11:53.617Z,63.61
2018-09-14T03:12:25.228Z,63.54
2018-09-14T03:12:56.834Z,63.54
2018-09-14T03:13:28.423Z,63.52
2018-09-14T03:14:00.012Z,63.45
2018-09-14T03:14:31.599Z,63.48
2018-09-14T03:15:03.183Z,63.43
2018-09-14T03:15:34.777Z,63.42
2018-09-14T03:16:06.402Z,63.41
2018-09-14T03:16:37.992Z,63.35
2018-09-14T03:17:09.594Z,63.37
2018-09-14T03:17:41.184Z,63.28
2018-09-14T03:18:12.773Z,63.24
2018-09-14T03:18:44.365Z,63.26
2018-09-14T03:19:15.966Z,63.23
2018-09-14T03:19:47.552Z,63.22
2018-09-14T03:20:19.136Z,63.20
2018-09-14T03:20:50.739Z,63.15
2018-09-14T03:21:22.373Z,63.21
2018-09-14T03:21:53.980Z,63.14
2018-09-14T03:22:25.577Z,63.11
2018-09-14T03:22:57.163Z,63.11
2018-09-14T03:23:28.748Z,63.04
2018-09-14T03:24:00.399Z,62.98
2018-09-14T03:24:31.992Z,63.01
2018-09-14T03:25:03.584Z,62.98
2018-09-14T03:25:35.177Z,62.96
2018-09-14T03:26:06.774Z,62.97
2018-09-14T03:26:38.379Z,62.92
2018-09-14T03:27:09.978Z,62.95
2018-09-14T03:27:41.568Z,62.86
2018-09-14T03:28:13.152Z,62.90
2018-09-14T03:28:44.740Z,62.86
2018-09-14T03:29:16.332Z,62.84
2018-09-14T03:29:47.929Z,62.82
2018-09-14T03:30:19.531Z,62.80
2018-09-14T03:30:51.143Z,62.80
2018-09-14T03:31:22.756Z,62.83
2018-09-14T03:31:54.386Z,62.75
2018-09-14T03:32:25.994Z,62.70
2018-09-14T03:32:57.598Z,62.70
2018-09-14T03:33:29.179Z,62.66
2018-09-14T03:34:00.789Z,62.67
2018-09-14T03:34:32.376Z,62.63
2018-09-14T03:35:03.968Z,62.59
2018-09-14T03:35:35.547Z,62.62
2018-09-14T03:36:07.145Z,62.60
2018-09-14T03:36:38.739Z,62.52
2018-09-14T03:37:10.314Z,62.52
2018-09-14T03:37:41.914Z,62.45
2018-09-14T03:38:13.522Z,62.46
2018-09-14T03:38:45.137Z,62.48
2018-09-14T03:39:16.759Z,62.44
2018-09-14T03:39:48.369Z,62.42
2018-09-14T03:40:19.958Z,62.38
2018-09-14T03:40:51.557Z,62.42
2018-09-14T03:41:23.143Z,62.34
2018-09-14T03:41:54.750Z,62.33
2018-09-14T03:42:26.340Z,62.32
2018-09-14T03:42:57.946Z,62.31
2018-09-14T03:43:29.551Z,62.30
2018-09-14T03:44:01.140Z,62.33
2018-09-14T03:44:32.748Z,62.30
2018-09-14T03:45:04.340Z,62.30
2018-09-14T03:45:35.937Z,62.23
2018-09-14T03:46:07.522Z,62.26
2018-09-14T03:46:39.127Z,62.23
2018-09-14T03:47:10.748Z,62.19
2018-09-14T03:47:42.336Z,62.17
2018-09-14T03:48:13.943Z,62.15
2018-09-14T03:48:45.537Z,62.15
2018-09-14T03:49:17.129Z,62.13
2018-09-14T03:49:48.707Z,62.09
2018-09-14T03:50:20.301Z,62.09
2018-09-14T03:50:51.888Z,62.06
2018-09-14T03:51:23.490Z,62.06
2018-09-14T03:51:55.085Z,62.02
2018-09-14T03:52:26.708Z,62.03
2018-09-14T03:52:58.295Z,62.02
2018-09-14T03:53:29.889Z,62.02
2018-09-14T03:54:01.487Z,61.99
2018-09-14T03:54:33.080Z,62.03
2018-09-14T03:55:04.683Z,61.96
2018-09-14T03:55:36.272Z,61.94
2018-09-14T03:56:07.869Z,61.94
2018-09-14T03:56:39.474Z,61.93
2018-09-14T03:57:11.121Z,61.94
2018-09-14T03:57:42.728Z,61.98
2018-09-14T03:58:14.329Z,61.94
2018-09-14T03:58:45.915Z,61.89
2018-09-14T03:59:17.503Z,61.89
2018-09-14T03:59:49.093Z,61.86
2018-09-14T04:00:20.680Z,61.89
2018-09-14T04:00:52.282Z,61.85
2018-09-14T04:01:23.872Z,61.83
2018-09-14T04:01:55.465Z,61.80
2018-09-14T04:02:27.052Z,61.83
2018-09-14T04:02:58.672Z,61.81
2018-09-14T04:03:30.264Z,61.79
2018-09-14T04:04:01.870Z,61.80
2018-09-14T04:04:33.463Z,61.79
2018-09-14T04:05:05.053Z,61.78
2018-09-14T04:05:36.653Z,61.80
2018-09-14T04:06:08.258Z,61.78
2018-09-14T04:06:39.863Z,61.78
2018-09-14T04:07:11.468Z,61.73
2018-09-14T04:07:43.137Z,61.70
2018-09-14T04:08:14.731Z,61.70
2018-09-14T04:08:46.320Z,61.68
2018-09-14T04:09:17.904Z,61.67
2018-09-14T04:09:49.498Z,61.71
2018-09-14T04:10:21.088Z,61.66
2018-09-14T04:10:52.662Z,61.65
2018-09-14T04:11:24.247Z,61.64
2018-09-14T04:11:55.836Z,61.65
2018-09-14T04:12:27.424Z,61.64
2018-09-14T04:12:59.025Z,61.60
2018-09-14T04:13:30.654Z,61.61
2018-09-14T04:14:02.239Z,61.59
2018-09-14T04:14:33.839Z,61.58
2018-09-14T04:15:05.428Z,61.56
2018-09-14T04:15:37.001Z,61.63
2018-09-14T04:16:08.592Z,61.54
2018-09-14T04:16:40.180Z,61.57
2018-09-14T04:17:11.772Z,61.52
2018-09-14T04:17:43.373Z,61.52
2018-09-14T04:18:14.959Z,61.51
2018-09-14T04:18:46.548Z,61.51
2018-09-14T04:19:18.122Z,61.56
2018-09-14T04:19:49.708Z,61.48
2018-09-14T04:20:21.314Z,61.50
2018-09-14T04:20:52.899Z,61.43
2018-09-14T04:21:24.502Z,61.47
2018-09-14T04:21:56.109Z,61.42
2018-09-14T04:22:27.686Z,61.45
2018-09-14T04:22:59.290Z,61.41
2018-09-14T04:23:30.981Z,61.39
2018-09-14T04:24:02.539Z,61.40
2018-09-14T04:24:34.125Z,61.45
2018-09-14T04:25:05.716Z,61.45
2018-09-14T04:25:37.317Z,61.37
2018-09-14T04:26:09.005Z,61.34
2018-09-14T04:26:40.610Z,61.38
2018-09-14T04:27:12.196Z,61.35
2018-09-14T04:27:43.794Z,61.32
2018-09-14T04:28:15.384Z,61.34
2018-09-14T04:28:46.964Z,61.31
2018-09-14T04:29:18.557Z,61.34
2018-09-14T04:29:50.135Z,61.35
2018-09-14T04:30:21.734Z,61.33
2018-09-14T04:30:53.318Z,61.32
2018-09-14T04:31:24.923Z,61.33
2018-09-14T04:31:56.516Z,61.28
2018-09-14T04:32:28.097Z,61.31
2018-09-14T04:32:59.703Z,61.25
2018-09-14T04:33:31.310Z,61.23
2018-09-14T04:34:02.896Z,61.25
2018-09-14T04:34:34.483Z,61.22
2018-09-14T04:35:06.073Z,61.24
2018-09-14T04:35:37.674Z,61.20
2018-09-14T04:36:09.264Z,61.23
2018-09-14T04:36:40.852Z,61.25
2018-09-14T04:37:12.440Z,61.25
2018-09-14T04:37:44.028Z,61.24
2018-09-14T04:38:15.740Z,61.23
2018-09-14T04:38:47.265Z,61.22
2018-09-14T04:39:18.870Z,61.18
2018-09-14T04:39:50.461Z,61.24
2018-09-14T04:40:22.066Z,61.22
2018-09-14T04:40:53.661Z,61.26
2018-09-14T04:41:25.266Z,61.34
2018-09-14T04:41:56.870Z,61.29
2018-09-14T04:42:28.474Z,61.31
2018-09-14T04:43:00.060Z,61.35
2018-09-14T04:43:31.657Z,61.27
2018-09-14T04:44:03.330Z,61.31
2018-09-14T04:44:34.888Z,61.36
2018-09-14T04:45:06.480Z,61.28
2018-09-14T04:45:38.265Z,61.47
2018-09-14T04:46:09.858Z,61.30
2018-09-14T04:46:41.452Z,61.29
2018-09-14T04:47:13.030Z,61.39
2018-09-14T04:47:44.634Z,61.25
2018-09-14T04:48:16.246Z,61.29
2018-09-14T04:48:47.887Z,61.26
2018-09-14T04:49:19.476Z,61.27
2018-09-14T04:49:51.078Z,61.29
2018-09-14T04:50:22.676Z,61.25
2018-09-14T04:50:54.264Z,61.26
2018-09-14T04:51:25.949Z,61.13
2018-09-14T04:51:57.490Z,61.16
2018-09-14T04:52:29.098Z,61.18
2018-09-14T04:53:00.691Z,61.11
2018-09-14T04:53:32.294Z,61.09
2018-09-14T04:54:03.908Z,61.12
2018-09-14T04:54:35.496Z,61.07
2018-09-14T04:55:07.098Z,61.11
2018-09-14T04:55:38.703Z,61.00
2018-09-14T04:56:10.309Z,61.01
2018-09-14T04:56:41.904Z,60.99
2018-09-14T04:57:13.520Z,60.86
2018-09-14T04:57:45.114Z,60.87
2018-09-14T04:58:16.690Z,60.85
2018-09-14T04:58:48.308Z,60.86
2018-09-14T04:59:19.900Z,60.79
2018-09-14T04:59:51.506Z,60.82
2018-09-14T05:00:23.114Z,60.78
2018-09-14T05:00:54.714Z,60.80
2018-09-14T05:01:26.322Z,60.79
2018-09-14T05:01:57.912Z,60.79
2018-09-14T05:02:29.486Z,60.72
2018-09-14T05:03:01.096Z,60.73
2018-09-14T05:03:32.700Z,60.71
2018-09-14T05:04:04.312Z,60.82
2018-09-14T05:04:35.914Z,60.77
2018-09-14T05:05:07.513Z,60.74
2018-09-14T05:05:39.120Z,60.67
2018-09-14T05:06:10.713Z,60.76
2018-09-14T05:06:42.329Z,60.62
2018-09-14T05:07:13.924Z,60.69
2018-09-14T05:07:45.568Z,60.75
2018-09-14T05:08:17.118Z,60.62
2018-09-14T05:08:49.075Z,60.59
2018-09-14T05:09:21.108Z,60.52
2018-09-14T05:09:52.695Z,60.69
2018-09-14T05:10:24.284Z,60.52
2018-09-14T05:10:55.886Z,60.64
2018-09-14T05:11:27.483Z,60.52
2018-09-14T05:11:59.072Z,60.53
2018-09-14T05:12:30.664Z,60.52
2018-09-14T05:13:02.271Z,60.50
2018-09-14T05:13:33.860Z,60.54
2018-09-14T05:14:05.521Z,60.48
2018-09-14T05:14:37.112Z,60.46
2018-09-14T05:15:08.718Z,60.47
2018-09-14T05:15:40.308Z,60.59
2018-09-14T05:16:11.896Z,60.50
2018-09-14T05:16:43.503Z,60.54
2018-09-14T05:17:15.082Z,60.55
2018-09-14T05:17:46.672Z,60.43
2018-09-14T05:18:18.270Z,60.44
2018-09-14T05:18:49.859Z,60.44
2018-09-14T05:19:21.477Z,60.45
2018-09-14T05:19:53.056Z,60.43
2018-09-14T05:20:24.643Z,60.47
2018-09-14T05:20:56.237Z,60.37
2018-09-14T05:21:27.824Z,60.37
2018-09-14T05:21:59.426Z,60.54
2018-09-14T05:22:31.017Z,60.42
2018-09-14T05:23:02.604Z,60.42
2018-09-14T05:23:34.186Z,60.42
2018-09-14T05:24:05.838Z,60.36
2018-09-14T05:24:37.579Z,60.50
2018-09-14T05:25:09.095Z,60.38
2018-09-14T05:25:40.694Z,60.32
2018-09-14T05:26:12.284Z,60.44
2018-09-14T05:26:43.887Z,60.34
2018-09-14T05:27:15.480Z,60.40
2018-09-14T05:27:47.072Z,60.34
2018-09-14T05:28:18.688Z,60.52
2018-09-14T05:28:50.291Z,60.33
2018-09-14T05:29:21.908Z,60.47
2018-09-14T05:29:53.496Z,60.34
2018-09-14T05:30:25.079Z,60.33
2018-09-14T05:30:56.685Z,60.40
2018-09-14T05:31:28.280Z,60.38
2018-09-14T05:31:59.868Z,60.40
2018-09-14T05:32:31.470Z,60.28
2018-09-14T05:33:03.073Z,60.44
2018-09-14T05:33:34.665Z,60.34
2018-09-14T05:34:06.298Z,60.29
2018-09-14T05:34:37.906Z,60.29
2018-09-14T05:35:09.515Z,60.44
2018-09-14T05:35:41.117Z,60.34
2018-09-14T05:36:12.709Z,60.48
2018-09-14T05:36:44.300Z,60.43
2018-09-14T05:37:15.906Z,60.29
2018-09-14T05:37:47.514Z,60.42
2018-09-14T05:38:19.144Z,60.27
2018-09-14T05:38:50.719Z,60.34
2018-09-14T05:39:22.332Z,60.39
2018-09-14T05:39:53.933Z,60.39
2018-09-14T05:40:25.539Z,60.34
2018-09-14T05:40:57.140Z,60.40
2018-09-14T05:41:28.741Z,60.34
2018-09-14T05:42:00.318Z,60.33
2018-09-14T05:42:31.904Z,60.44
2018-09-14T05:43:03.492Z,60.34
2018-09-14T05:43:35.129Z,60.34
2018-09-14T05:44:06.695Z,60.34
2018-09-14T05:44:38.322Z,60.37
2018-09-14T05:45:09.912Z,60.42
2018-09-14T05:45:41.558Z,60.38
2018-09-14T05:46:13.142Z,60.45
2018-09-14T05:46:44.746Z,60.37
2018-09-14T05:47:16.340Z,60.36
2018-09-14T05:47:47.934Z,60.38
2018-09-14T05:48:19.525Z,60.35
2018-09-14T05:48:51.112Z,60.34
2018-09-14T05:49:22.738Z,60.38
2018-09-14T05:49:54.356Z,60.38
2018-09-14T05:50:25.962Z,60.34
2018-09-14T05:50:57.566Z,60.23
2018-09-14T05:51:29.156Z,60.33
2018-09-14T05:52:00.744Z,60.28
2018-09-14T05:52:32.341Z,60.30
2018-09-14T05:53:03.931Z,60.32
2018-09-14T05:53:35.724Z,60.32
2018-09-14T05:54:07.327Z,60.26
2018-09-14T05:54:38.948Z,60.27
2018-09-14T05:55:10.526Z,60.23
2018-09-14T05:55:42.121Z,60.27
2018-09-14T05:56:13.711Z,60.27
2018-09-14T05:56:45.300Z,60.28
2018-09-14T05:57:17.276Z,60.21
2018-09-14T05:57:48.907Z,60.25
2018-09-14T05:58:20.509Z,60.36
2018-09-14T05:58:52.091Z,60.32
2018-09-14T06:00:01.648Z,60.28
2018-09-14T06:00:33.241Z,60.27
2018-09-14T06:01:04.832Z,60.29
2018-09-14T06:01:36.410Z,60.29
2018-09-14T06:02:08.001Z,60.26
2018-09-14T06:02:39.592Z,60.39
2018-09-14T06:03:11.198Z,60.33
2018-09-14T06:03:42.802Z,60.30
2018-09-14T06:04:14.406Z,60.34
2018-09-14T06:04:46.021Z,60.39
2018-09-14T06:05:17.616Z,60.28
2018-09-14T06:05:49.219Z,60.46
2018-09-14T06:06:20.847Z,60.31
2018-09-14T06:06:52.440Z,60.37
2018-09-14T06:07:24.023Z,60.40
2018-09-14T06:07:55.612Z,60.36
2018-09-14T06:08:27.200Z,60.35
2018-09-14T06:08:58.797Z,60.35
2018-09-14T06:09:30.418Z,60.32
2018-09-14T06:10:02.018Z,60.33
2018-09-14T06:10:33.658Z,60.39
2018-09-14T06:11:05.219Z,60.22
2018-09-14T06:11:36.827Z,60.38
2018-09-14T06:12:08.435Z,60.34
2018-09-14T06:12:40.068Z,60.34
2018-09-14T06:13:11.656Z,60.39
2018-09-14T06:13:43.253Z,60.32
2018-09-14T06:14:14.839Z,60.38
2018-09-14T06:14:46.473Z,60.27
2018-09-14T06:15:18.078Z,60.38
2018-09-14T06:15:49.691Z,60.29
2018-09-14T06:16:21.285Z,60.31
2018-09-14T06:16:52.893Z,60.31
2018-09-14T06:17:24.507Z,60.24
2018-09-14T06:17:56.110Z,60.23
2018-09-14T06:18:27.700Z,60.37
2018-09-14T06:18:59.279Z,60.27
2018-09-14T06:19:30.858Z,60.25
2018-09-14T06:20:02.462Z,60.29
2018-09-14T06:20:34.070Z,60.27
2018-09-14T06:21:05.667Z,60.30
2018-09-14T06:21:37.269Z,60.37
2018-09-14T06:22:08.863Z,60.24
2018-09-14T06:22:40.540Z,60.29
2018-09-14T06:23:12.078Z,60.29
2018-09-14T06:23:43.662Z,60.29
2018-09-14T06:24:15.274Z,60.37
2018-09-14T06:24:46.896Z,60.25
2018-09-14T06:25:18.484Z,60.19
2018-09-14T06:25:50.082Z,60.28
2018-09-14T06:26:21.680Z,60.32
2018-09-14T06:26:53.282Z,60.27
2018-09-14T06:27:24.991Z,60.39
2018-09-14T06:27:56.593Z,60.26
2018-09-14T06:28:28.183Z,60.29
2018-09-14T06:28:59.781Z,60.29
2018-09-14T06:29:31.780Z,60.23
2018-09-14T06:30:03.710Z,60.23
2018-09-14T06:30:35.304Z,60.28
2018-09-14T06:31:06.892Z,60.22
2018-09-14T06:31:38.480Z,60.25
2018-09-14T06:32:10.083Z,60.27
2018-09-14T06:32:41.675Z,60.28
2018-09-14T06:33:13.278Z,60.30
2018-09-14T06:33:44.864Z,60.25
2018-09-14T06:34:16.456Z,60.20
2018-09-14T06:34:48.075Z,60.21
2018-09-14T06:35:19.674Z,60.22
2018-09-14T06:35:51.264Z,60.24
2018-09-14T06:36:22.852Z,60.33
2018-09-14T06:36:54.446Z,60.36
2018-09-14T06:37:26.033Z,60.34
2018-09-14T06:37:57.638Z,60.35
2018-09-14T06:38:29.229Z,60.23
2018-09-14T06:39:00.816Z,60.20
2018-09-14T06:39:33.832Z,60.20
2018-09-14T06:40:05.420Z,60.24
2018-09-14T06:40:37.000Z,60.22
2018-09-14T06:41:08.602Z,60.21
2018-09-14T06:41:40.238Z,60.31
2018-09-14T06:42:11.828Z,60.19
2018-09-14T06:42:43.412Z,60.14
2018-09-14T06:43:15.000Z,60.15
2018-09-14T06:43:46.595Z,60.10
2018-09-14T06:44:18.230Z,60.28
2018-09-14T06:44:49.850Z,60.20
2018-09-14T06:45:21.518Z,60.23
2018-09-14T06:45:53.083Z,60.21
2018-09-14T06:46:24.659Z,60.20
2018-09-14T06:46:56.244Z,60.21
2018-09-14T06:47:27.846Z,60.20